Time;durP1;ratioP1;P1;durP2;ratioP2;P2;SDS_P1;SDS_P2;PMS_P1;PMS_P2;Temp;Humidity;BMP_temperature;BMP_pressure;BME280_temperature;BME280_humidity;BME280_pressure;Samples;Min_cycle;Max_cycle;Signal;HPM_P1;HPM_P2
2022/07/01 00:00:37;;;;;;;10.70;9.70;;;15.80;99.90;;;;;;5025333;28;20049;-35
2022/07/01 00:03:04;;;;;;;13.23;11.82;;;15.70;99.90;;;;;;5026556;28;20444;-35
2022/07/01 00:05:30;;;;;;;11.82;10.63;;;15.70;99.90;;;;;;5025852;28;20025;-35
2022/07/01 00:07:55;;;;;;;11.75;10.63;;;15.70;99.90;;;;;;5025455;28;20106;-35
2022/07/01 00:10:21;;;;;;;11.50;10.40;;;15.70;99.90;;;;;;5025982;28;20108;-36
2022/07/01 00:12:46;;;;;;;13.13;11.82;;;15.60;99.90;;;;;;5025525;28;20071;-36
2022/07/01 00:15:12;;;;;;;13.32;11.98;;;15.70;99.90;;;;;;5025786;28;20516;-40
2022/07/01 00:17:39;;;;;;;12.77;11.57;;;15.60;99.90;;;;;;5026121;28;20028;-36
2022/07/01 00:20:05;;;;;;;13.18;11.98;;;15.60;99.90;;;;;;5026433;28;20469;-37
2022/07/01 00:22:31;;;;;;;13.10;11.90;;;15.50;99.90;;;;;;5024743;28;20536;-37
2022/07/01 00:24:56;;;;;;;14.75;13.05;;;15.50;99.90;;;;;;5026070;28;20144;-37
2022/07/01 00:27:22;;;;;;;12.60;11.50;;;15.40;99.90;;;;;;5025885;28;20026;-37
2022/07/01 00:29:48;;;;;;;14.30;13.00;;;15.50;99.90;;;;;;5025268;28;20134;-36
2022/07/01 00:32:14;;;;;;;15.15;13.45;;;15.40;99.90;;;;;;5025461;28;20049;-35
2022/07/01 00:34:39;;;;;;;15.85;14.40;;;15.40;99.90;;;;;;5024378;28;20033;-35
2022/07/01 00:37:05;;;;;;;14.25;12.75;;;15.40;99.90;;;;;;5025831;28;20489;-34
2022/07/01 00:39:31;;;;;;;13.75;12.45;;;15.40;99.90;;;;;;5025307;28;20033;-36
2022/07/01 00:42:04;;;;;;;12.77;11.48;;;15.40;99.90;;;;;;5025109;28;20021;-35
2022/07/01 00:44:30;;;;;;;12.10;11.00;;;15.40;99.90;;;;;;5024867;28;20435;-34
2022/07/01 00:46:59;;;;;;;13.23;11.93;;;15.40;99.90;;;;;;5025595;28;20048;-37
2022/07/01 00:49:26;;;;;;;12.23;11.10;;;15.50;99.90;;;;;;5025678;28;20021;-35
2022/07/01 00:51:52;;;;;;;13.15;11.93;;;15.50;99.90;;;;;;5029915;28;20030;-35
2022/07/01 00:54:20;;;;;;;11.70;10.60;;;15.60;99.90;;;;;;5029076;28;20032;-36
2022/07/01 00:56:46;;;;;;;12.88;11.57;;;15.50;99.90;;;;;;5029091;28;20087;-35
2022/07/01 00:59:12;;;;;;;13.98;12.57;;;15.60;99.90;;;;;;5028989;28;20132;-35
2022/07/01 01:01:38;;;;;;;13.82;12.27;;;15.60;99.90;;;;;;5029397;28;20113;-36
2022/07/01 01:04:04;;;;;;;12.75;11.55;;;15.70;99.90;;;;;;5028785;28;20028;-36
2022/07/01 01:06:29;;;;;;;14.88;13.27;;;15.60;99.90;;;;;;5029066;28;20064;-34
2022/07/01 01:08:55;;;;;;;16.25;14.10;;;15.70;99.90;;;;;;5029328;28;20041;-35
2022/07/01 01:11:20;;;;;;;19.27;17.05;;;15.70;99.90;;;;;;5026826;28;20028;-36
2022/07/01 01:13:46;;;;;;;19.42;17.25;;;15.70;99.90;;;;;;5029469;28;20489;-35
2022/07/01 01:16:22;;;;;;;20.85;18.02;;;15.70;99.90;;;;;;5029604;28;20487;-35
2022/07/01 01:18:48;;;;;;;21.23;18.92;;;15.70;99.90;;;;;;5028810;28;20045;-35
2022/07/01 01:21:15;;;;;;;25.00;20.70;;;15.80;99.90;;;;;;5028790;28;20068;-34
2022/07/01 01:23:41;;;;;;;26.73;23.20;;;15.70;99.90;;;;;;5028635;28;20124;-36
2022/07/01 01:26:24;;;;;;;26.73;23.50;;;15.80;99.90;;;;;;5028776;28;20490;-35
2022/07/01 01:28:50;;;;;;;30.17;25.75;;;15.70;99.90;;;;;;5009390;28;20448;-35
2022/07/01 01:31:16;;;;;;;28.15;24.92;;;15.80;99.90;;;;;;5022238;28;20136;-35
2022/07/01 01:33:42;;;;;;;31.10;27.70;;;15.70;99.90;;;;;;5029100;28;20443;-34
2022/07/01 01:36:07;;;;;;;32.83;28.63;;;15.70;99.90;;;;;;5029192;28;20477;-35
2022/07/01 01:38:34;;;;;;;33.10;28.15;;;15.70;99.90;;;;;;5027852;28;20507;-36
2022/07/01 01:41:01;;;;;;;32.72;27.77;;;15.70;99.90;;;;;;5028622;28;20099;-35
2022/07/01 01:43:26;;;;;;;31.20;27.60;;;15.70;99.90;;;;;;5028721;28;20473;-36
2022/07/01 01:45:52;;;;;;;33.17;27.80;;;15.70;99.90;;;;;;5028198;28;20128;-35
2022/07/01 01:48:18;;;;;;;29.80;26.60;;;15.70;99.90;;;;;;5028743;28;20787;-35
2022/07/01 01:50:43;;;;;;;29.33;26.17;;;15.70;99.90;;;;;;5028256;28;20597;-35
2022/07/01 01:53:09;;;;;;;33.30;29.45;;;15.70;99.90;;;;;;5027808;28;20041;-36
2022/07/01 01:55:35;;;;;;;32.15;28.75;;;15.70;99.90;;;;;;5028185;28;20029;-35
2022/07/01 01:58:00;;;;;;;32.25;28.70;;;15.60;99.90;;;;;;5028803;28;20048;-34
2022/07/01 02:00:26;;;;;;;32.13;27.83;;;15.60;99.90;;;;;;5025774;28;20076;-36
2022/07/01 02:02:51;;;;;;;31.85;28.45;;;15.60;99.90;;;;;;5027033;28;20350;-37
2022/07/01 02:05:18;;;;;;;31.95;27.10;;;15.60;99.90;;;;;;5028917;28;20026;-35
2022/07/01 02:07:44;;;;;;;29.98;26.77;;;15.60;99.90;;;;;;5027381;28;20967;-36
2022/07/01 02:10:10;;;;;;;33.08;28.45;;;15.60;99.90;;;;;;5028817;28;20045;-35
2022/07/01 02:12:36;;;;;;;37.33;31.40;;;15.60;99.90;;;;;;5027534;28;20037;-35
2022/07/01 02:15:01;;;;;;;35.72;31.60;;;15.60;99.90;;;;;;5027618;28;20490;-35
2022/07/01 02:17:27;;;;;;;34.90;30.75;;;15.60;99.90;;;;;;5027551;28;20067;-34
2022/07/01 02:19:52;;;;;;;36.63;31.10;;;15.60;99.90;;;;;;5028815;28;20437;-36
2022/07/01 02:22:18;;;;;;;33.90;30.08;;;15.50;99.90;;;;;;5027148;28;20015;-36
2022/07/01 02:24:44;;;;;;;38.28;32.97;;;15.60;99.90;;;;;;5027686;28;20036;-35
2022/07/01 02:27:12;;;;;;;38.05;33.95;;;15.60;99.90;;;;;;5027762;28;20036;-34
2022/07/01 02:29:37;;;;;;;33.60;30.00;;;15.50;99.90;;;;;;5027544;28;20029;-35
2022/07/01 02:32:03;;;;;;;34.53;30.52;;;15.40;99.90;;;;;;5027788;28;20026;-37
2022/07/01 02:34:29;;;;;;;30.63;27.33;;;15.40;99.90;;;;;;5026737;28;20183;-36
2022/07/01 02:36:55;;;;;;;33.40;27.58;;;15.40;99.90;;;;;;5027801;28;20544;-37
2022/07/01 02:39:21;;;;;;;31.42;27.17;;;15.40;99.90;;;;;;5027786;28;20591;-37
2022/07/01 02:44:31;;;;;;;29.33;25.65;;;15.40;99.90;;;;;;5026663;28;20122;-38
2022/07/01 02:46:57;;;;;;;27.67;24.67;;;15.40;99.90;;;;;;5027789;28;20443;-36
2022/07/01 02:49:22;;;;;;;30.20;27.00;;;15.40;99.90;;;;;;5026448;28;20036;-36
2022/07/01 02:51:48;;;;;;;31.00;27.35;;;15.30;99.90;;;;;;5027774;28;20025;-36
2022/07/01 02:54:13;;;;;;;30.40;26.77;;;15.30;99.90;;;;;;5027261;28;20136;-36
2022/07/01 02:56:39;;;;;;;27.80;24.80;;;15.20;99.90;;;;;;5027008;28;20036;-37
2022/07/01 02:59:04;;;;;;;28.02;24.75;;;15.20;99.90;;;;;;5027232;28;20250;-36
2022/07/01 03:01:30;;;;;;;28.92;25.23;;;15.20;99.90;;;;;;5027141;28;20073;-37
2022/07/01 03:03:55;;;;;;;31.23;26.95;;;15.20;99.90;;;;;;5027033;28;20028;-35
2022/07/01 03:06:21;;;;;;;32.55;26.55;;;15.20;99.90;;;;;;5027146;28;20112;-35
2022/07/01 03:08:46;;;;;;;31.38;25.92;;;15.10;99.90;;;;;;5026796;28;20393;-36
2022/07/01 03:11:12;;;;;;;28.73;25.45;;;15.10;99.90;;;;;;5026730;28;20477;-35
2022/07/01 03:13:37;;;;;;;28.77;24.58;;;15.10;99.90;;;;;;5026293;28;20021;-35
2022/07/01 03:16:03;;;;;;;26.42;22.83;;;15.10;99.90;;;;;;5027687;28;20033;-35
2022/07/01 03:18:29;;;;;;;25.77;22.90;;;15.10;99.90;;;;;;5025929;28;20069;-35
2022/07/01 03:20:54;;;;;;;25.50;22.60;;;15.20;99.90;;;;;;5027356;28;20108;-36
2022/07/01 03:23:20;;;;;;;24.63;22.02;;;15.20;99.90;;;;;;5026699;28;20037;-35
2022/07/01 03:25:45;;;;;;;25.63;22.65;;;15.20;99.90;;;;;;5025712;28;20080;-35
2022/07/01 03:28:11;;;;;;;27.40;23.77;;;15.20;99.90;;;;;;5027267;28;20033;-35
2022/07/01 03:30:36;;;;;;;28.20;24.17;;;15.20;99.90;;;;;;5025767;28;20087;-36
2022/07/01 03:33:02;;;;;;;27.17;23.38;;;15.30;99.90;;;;;;5027217;28;20049;-35
2022/07/01 03:35:39;;;;;;;25.20;22.67;;;15.30;99.90;;;;;;5026466;28;20057;-37
2022/07/01 03:38:05;;;;;;;30.63;24.38;;;15.30;99.90;;;;;;5026812;28;20276;-36
2022/07/01 03:40:34;;;;;;;27.80;24.95;;;15.30;99.90;;;;;;5026667;28;20026;-35
2022/07/01 03:43:00;;;;;;;28.58;25.10;;;15.20;99.90;;;;;;5026790;28;20029;-35
2022/07/01 03:45:25;;;;;;;29.45;25.75;;;15.20;99.90;;;;;;5025661;28;20103;-36
2022/07/01 03:47:51;;;;;;;31.05;26.17;;;15.10;99.90;;;;;;5027074;28;20519;-35
2022/07/01 03:50:20;;;;;;;28.25;24.38;;;15.10;99.90;;;;;;5026314;28;20116;-36
2022/07/01 03:52:45;;;;;;;30.67;25.50;;;15.00;99.90;;;;;;5025952;28;20049;-36
2022/07/01 03:55:12;;;;;;;28.42;24.40;;;15.00;99.90;;;;;;5026349;28;20026;-35
2022/07/01 03:57:38;;;;;;;29.33;25.38;;;14.90;99.90;;;;;;5026367;28;20481;-36
2022/07/01 04:00:06;;;;;;;29.88;24.35;;;14.90;99.90;;;;;;5025834;28;20058;-36
2022/07/01 04:02:32;;;;;;;24.20;21.20;;;14.90;99.90;;;;;;5025595;28;20034;-36
2022/07/01 04:04:58;;;;;;;24.88;21.83;;;14.90;99.90;;;;;;5026696;28;20025;-37
2022/07/01 04:07:23;;;;;;;24.75;21.48;;;15.00;99.90;;;;;;5026147;28;20477;-36
2022/07/01 04:09:50;;;;;;;23.60;21.00;;;15.00;99.90;;;;;;5026337;28;20041;-34
2022/07/01 04:12:16;;;;;;;22.40;19.98;;;15.10;99.90;;;;;;5025594;28;20100;-35
2022/07/01 04:14:41;;;;;;;20.92;18.73;;;15.10;99.90;;;;;;5025639;28;20104;-36
2022/07/01 04:17:07;;;;;;;24.83;20.75;;;15.10;99.90;;;;;;5026004;28;20137;-36
2022/07/01 04:19:34;;;;;;;25.75;21.33;;;15.20;99.90;;;;;;5025461;28;20037;-35
2022/07/01 04:24:44;;;;;;;27.83;21.38;;;15.30;99.90;;;;;;5006751;28;20188;-36
2022/07/01 04:27:09;;;;;;;25.98;21.33;;;15.30;99.90;;;;;;5019799;28;20152;-35
2022/07/01 04:29:35;;;;;;;33.00;23.60;;;15.30;99.90;;;;;;5025463;28;20022;-35
2022/07/01 04:32:01;;;;;;;27.67;23.02;;;15.30;99.90;;;;;;5025786;28;20021;-35
2022/07/01 04:34:26;;;;;;;30.27;23.48;;;15.30;99.90;;;;;;5024662;28;20029;-37
2022/07/01 04:36:52;;;;;;;28.10;23.05;;;15.30;99.90;;;;;;5026078;28;20615;-37
2022/07/01 04:39:18;;;;;;;27.38;22.75;;;15.30;99.90;;;;;;5025073;28;20480;-36
2022/07/01 04:41:58;;;;;;;26.02;19.88;;;15.30;99.90;;;;;;5025596;28;20385;-36
2022/07/01 04:44:25;;;;;;;26.30;20.83;;;15.40;99.90;;;;;;5025453;28;20026;-36
2022/07/01 04:46:50;;;;;;;25.17;21.10;;;15.30;99.90;;;;;;5025381;28;20021;-35
2022/07/01 04:49:16;;;;;;;28.02;22.58;;;15.40;99.90;;;;;;5025157;28;20029;-35
2022/07/01 04:51:41;;;;;;;26.80;22.13;;;15.40;99.90;;;;;;5025036;28;20112;-35
2022/07/01 04:54:08;;;;;;;25.65;21.27;;;15.40;99.90;;;;;;5025821;28;20120;-35
2022/07/01 04:56:35;;;;;;;25.70;20.70;;;15.40;99.90;;;;;;5024591;28;20451;-34
2022/07/01 04:59:01;;;;;;;29.05;22.38;;;15.40;99.90;;;;;;5025124;28;20400;-37
2022/07/01 05:01:28;;;;;;;31.48;23.88;;;15.40;99.90;;;;;;5024776;28;20083;-36
2022/07/01 05:03:54;;;;;;;30.65;23.33;;;15.40;99.90;;;;;;5024509;28;20033;-35
2022/07/01 05:06:19;;;;;;;32.92;24.45;;;15.40;99.90;;;;;;5025132;28;20034;-35
2022/07/01 05:08:45;;;;;;;27.85;22.02;;;15.40;99.90;;;;;;5025056;28;20048;-35
2022/07/01 05:11:11;;;;;;;26.83;21.48;;;15.40;99.90;;;;;;5025466;28;20451;-35
2022/07/01 05:13:36;;;;;;;28.42;22.50;;;15.40;99.90;;;;;;5025069;28;20087;-38
2022/07/01 05:16:03;;;;;;;28.67;21.45;;;15.50;99.90;;;;;;5024722;28;20556;-35
2022/07/01 05:23:57;;;;;;;27.00;21.80;;;15.50;99.90;;;;;;5025069;28;20032;-36
2022/07/01 05:26:25;;;;;;;24.70;20.02;;;15.50;99.90;;;;;;5025238;28;20029;-36
2022/07/01 05:28:52;;;;;;;23.92;19.30;;;15.50;99.90;;;;;;5024964;28;20108;-36
2022/07/01 05:31:17;;;;;;;25.30;20.48;;;15.50;99.90;;;;;;5024331;28;20069;-36
2022/07/01 05:33:43;;;;;;;29.35;22.25;;;15.50;99.90;;;;;;5025060;28;20030;-35
2022/07/01 05:36:09;;;;;;;28.48;21.17;;;15.60;99.90;;;;;;5028041;28;20047;-37
2022/07/01 05:38:35;;;;;;;24.58;20.98;;;15.60;99.90;;;;;;5027448;28;20133;-36
2022/07/01 05:41:00;;;;;;;26.60;19.38;;;15.60;99.90;;;;;;5028848;28;20105;-36
2022/07/01 05:43:26;;;;;;;23.85;19.60;;;15.70;99.90;;;;;;5028264;28;20040;-36
2022/07/01 05:45:51;;;;;;;26.90;20.88;;;15.70;99.90;;;;;;5022976;28;20496;-34
2022/07/01 05:48:17;;;;;;;26.30;20.80;;;15.70;99.90;;;;;;5026449;28;20037;-35
2022/07/01 05:50:46;;;;;;;26.55;20.73;;;15.70;99.90;;;;;;5027631;28;20311;-35
2022/07/01 05:53:13;;;;;;;27.52;20.80;;;15.70;99.90;;;;;;5026020;28;20108;-37
2022/07/01 05:55:38;;;;;;;26.15;20.27;;;15.80;99.90;;;;;;5027347;28;20029;-36
2022/07/01 05:58:06;;;;;;;28.38;20.38;;;15.80;99.90;;;;;;5027717;28;20032;-35
2022/07/01 06:00:32;;;;;;;25.77;20.63;;;15.80;99.90;;;;;;5026856;28;20056;-35
2022/07/01 06:02:57;;;;;;;25.30;19.70;;;15.80;99.90;;;;;;5027993;28;20022;-35
2022/07/01 06:05:23;;;;;;;25.52;19.65;;;15.80;99.90;;;;;;5026795;28;20677;-35
2022/07/01 06:07:48;;;;;;;26.60;19.58;;;15.80;99.90;;;;;;5027584;28;20025;-35
2022/07/01 06:10:14;;;;;;;25.40;19.48;;;15.90;99.90;;;;;;5023836;28;20025;-37
2022/07/01 06:12:40;;;;;;;27.45;20.05;;;15.90;99.90;;;;;;5012024;28;20071;-35
2022/07/01 06:15:08;;;;;;;27.10;20.25;;;16.00;99.90;;;;;;5012076;28;20367;-36
2022/07/01 06:17:35;;;;;;;27.23;20.15;;;16.00;99.90;;;;;;5014135;28;20033;-34
2022/07/01 06:20:00;;;;;;;24.67;19.92;;;16.00;99.90;;;;;;5009463;28;20469;-34
2022/07/01 06:22:26;;;;;;;24.20;19.02;;;16.10;99.90;;;;;;5016852;28;20033;-35
2022/07/01 06:24:51;;;;;;;27.98;21.00;;;16.10;99.90;;;;;;5009005;28;20457;-35
2022/07/01 06:27:17;;;;;;;26.02;19.90;;;16.10;99.90;;;;;;5017811;28;20033;-35
2022/07/01 06:29:42;;;;;;;27.08;21.13;;;16.10;99.90;;;;;;5007748;28;20476;-35
2022/07/01 06:32:08;;;;;;;27.33;20.15;;;16.10;99.90;;;;;;5018941;28;20033;-36
2022/07/01 06:34:35;;;;;;;29.27;20.33;;;16.20;99.90;;;;;;5006669;28;20052;-35
2022/07/01 06:37:01;;;;;;;27.13;20.80;;;16.20;99.90;;;;;;5019889;28;20056;-35
2022/07/01 06:39:27;;;;;;;27.38;21.00;;;16.20;99.90;;;;;;5007420;28;20474;-35
2022/07/01 06:41:53;;;;;;;26.73;20.50;;;16.30;99.90;;;;;;5019150;28;20032;-36
2022/07/01 06:44:19;;;;;;;30.00;19.83;;;16.30;99.90;;;;;;5014547;28;20026;-36
2022/07/01 06:46:45;;;;;;;27.73;20.90;;;16.30;99.90;;;;;;5024735;28;20029;-35
2022/07/01 06:49:10;;;;;;;25.05;19.40;;;16.40;99.90;;;;;;5007826;28;20076;-35
2022/07/01 06:51:36;;;;;;;27.15;19.15;;;16.40;99.90;;;;;;5014079;28;20112;-36
2022/07/01 06:54:02;;;;;;;28.55;20.08;;;16.40;99.90;;;;;;5013056;28;20056;-36
2022/07/01 06:56:27;;;;;;;27.73;20.10;;;16.40;99.90;;;;;;5022186;28;20032;-36
2022/07/01 06:58:53;;;;;;;23.55;18.10;;;16.40;99.90;;;;;;5027456;28;20033;-35
2022/07/01 07:01:18;;;;;;;25.40;17.60;;;16.40;99.90;;;;;;5027097;28;20050;-34
2022/07/01 07:03:44;;;;;;;23.90;17.65;;;16.50;99.90;;;;;;5026522;28;20025;-35
2022/07/01 07:06:10;;;;;;;26.33;18.48;;;16.50;99.90;;;;;;5027106;28;20397;-35
2022/07/01 07:08:36;;;;;;;24.00;17.52;;;16.50;99.90;;;;;;5026509;28;20481;-37
2022/07/01 07:11:03;;;;;;;24.70;17.55;;;16.40;99.90;;;;;;5027391;28;20557;-36
2022/07/01 07:13:28;;;;;;;26.98;18.20;;;16.40;99.90;;;;;;5026645;28;20029;-36
2022/07/01 07:15:54;;;;;;;32.40;20.35;;;16.40;99.90;;;;;;5026901;28;20116;-36
2022/07/01 07:18:20;;;;;;;27.33;19.52;;;16.40;99.90;;;;;;5026859;28;20104;-36
2022/07/01 07:20:47;;;;;;;24.90;18.73;;;16.50;99.90;;;;;;5027313;28;20021;-37
2022/07/01 07:23:13;;;;;;;27.35;19.55;;;16.50;99.90;;;;;;5026233;28;20041;-36
2022/07/01 07:25:39;;;;;;;26.63;19.13;;;16.60;99.90;;;;;;5026557;28;20534;-35
2022/07/01 07:28:04;;;;;;;25.58;19.50;;;16.70;99.90;;;;;;5026968;28;20381;-35
2022/07/01 07:30:30;;;;;;;25.20;19.13;;;16.70;99.90;;;;;;5025158;28;20079;-36
2022/07/01 07:32:55;;;;;;;26.30;18.58;;;16.80;99.90;;;;;;5027087;28;20025;-35
2022/07/01 07:35:21;;;;;;;23.73;18.77;;;16.80;99.90;;;;;;5011816;28;20132;-35
2022/07/01 07:37:47;;;;;;;24.83;18.63;;;16.80;99.90;;;;;;5009824;28;20028;-36
2022/07/01 07:40:14;;;;;;;23.60;17.33;;;16.90;99.90;;;;;;5014941;28;20041;-35
2022/07/01 07:42:40;;;;;;;21.92;16.67;;;16.90;99.90;;;;;;5007468;28;20397;-36
2022/07/01 07:45:07;;;;;;;22.50;17.15;;;17.10;99.90;;;;;;5016552;28;20121;-35
2022/07/01 07:47:36;;;;;;;21.20;16.10;;;17.30;99.90;;;;;;5020656;28;20026;-35
2022/07/01 07:50:02;;;;;;;18.65;15.95;;;17.50;99.90;;;;;;5015605;28;20030;-34
2022/07/01 07:52:28;;;;;;;21.55;15.73;;;17.60;99.90;;;;;;5024861;28;20033;-36
2022/07/01 07:54:53;;;;;;;19.10;15.68;;;17.70;99.90;;;;;;5014206;28;20495;-36
2022/07/01 07:57:19;;;;;;;18.63;14.68;;;17.80;99.90;;;;;;5026267;28;20107;-37
2022/07/01 07:59:44;;;;;;;17.92;14.68;;;17.90;99.90;;;;;;5012199;28;20141;-37
2022/07/01 08:02:10;;;;;;;19.17;15.23;;;17.90;99.90;;;;;;5026584;28;20377;-36
2022/07/01 08:04:36;;;;;;;23.25;15.82;;;17.90;99.90;;;;;;5014236;28;20061;-35
2022/07/01 08:07:01;;;;;;;16.92;14.05;;;17.90;99.90;;;;;;5024754;28;20017;-36
2022/07/01 08:09:27;;;;;;;15.68;13.20;;;17.90;99.90;;;;;;5016660;28;20026;-36
2022/07/01 08:11:53;;;;;;;15.52;12.77;;;18.00;99.90;;;;;;5022165;28;20029;-36
2022/07/01 08:14:18;;;;;;;14.98;12.27;;;18.10;99.90;;;;;;5019646;28;20052;-36
2022/07/01 08:16:44;;;;;;;17.23;11.90;;;18.20;99.90;;;;;;5019750;28;20320;-35
2022/07/01 08:19:10;;;;;;;15.77;11.02;;;18.30;99.90;;;;;;5021225;28;20060;-35
2022/07/01 08:21:35;;;;;;;14.25;10.48;;;18.40;99.90;;;;;;5017450;28;20026;-35
2022/07/01 08:24:01;;;;;;;9.90;8.57;;;18.40;99.90;;;;;;5024470;28;20476;-36
2022/07/01 08:26:27;;;;;;;8.77;7.43;;;18.50;99.90;;;;;;5013194;28;20029;-35
2022/07/01 08:28:52;;;;;;;8.00;6.40;;;18.50;99.90;;;;;;5026236;28;20541;-35
2022/07/01 08:31:18;;;;;;;8.90;6.07;;;18.60;99.90;;;;;;5025503;28;20665;-37
2022/07/01 08:33:43;;;;;;;9.85;6.20;;;18.50;99.90;;;;;;5024878;28;20080;-35
2022/07/01 08:36:09;;;;;;;6.78;5.03;;;18.60;99.90;;;;;;5024160;28;20570;-36
2022/07/01 08:38:36;;;;;;;7.07;4.53;;;18.60;99.90;;;;;;5025270;28;20045;-35
2022/07/01 08:41:04;;;;;;;6.28;4.53;;;18.60;99.90;;;;;;5024438;28;20017;-34
2022/07/01 08:43:30;;;;;;;5.32;3.60;;;18.70;99.90;;;;;;5025201;28;20204;-36
2022/07/01 08:45:58;;;;;;;5.28;3.22;;;18.70;99.90;;;;;;5025309;28;20377;-37
2022/07/01 08:48:24;;;;;;;5.15;2.92;;;18.70;99.90;;;;;;5024890;28;20029;-35
2022/07/01 08:50:50;;;;;;;4.55;2.92;;;18.80;99.90;;;;;;5025316;28;20026;-35
2022/07/01 08:53:15;;;;;;;3.85;2.45;;;18.90;99.90;;;;;;5025049;28;20056;-34
2022/07/01 08:58:27;;;;;;;3.33;2.33;;;19.10;99.90;;;;;;5020681;28;20080;-33
2022/07/01 09:01:10;;;;;;;4.57;1.80;;;19.20;99.90;;;;;;5018227;28;20497;-35
2022/07/01 09:03:36;;;;;;;3.30;2.03;;;19.20;99.90;;;;;;5021820;28;20641;-35
2022/07/01 09:06:01;;;;;;;4.63;2.00;;;19.30;99.90;;;;;;5019602;28;20520;-35
2022/07/01 09:08:28;;;;;;;3.80;2.00;;;19.30;99.90;;;;;;5018497;28;20543;-34
2022/07/01 09:10:53;;;;;;;4.63;2.03;;;19.30;99.90;;;;;;5023375;28;20017;-35
2022/07/01 09:13:19;;;;;;;5.75;2.72;;;19.40;99.90;;;;;;5021109;28;20605;-35
2022/07/01 09:15:44;;;;;;;7.38;2.88;;;19.40;99.90;;;;;;5026976;28;20105;-36
2022/07/01 09:18:13;;;;;;;4.97;2.72;;;19.40;99.90;;;;;;5017910;28;20053;-35
2022/07/01 09:20:44;;;;;;;6.00;2.55;;;19.40;99.90;;;;;;5027588;28;20374;-36
2022/07/01 09:23:12;;;;;;;5.03;2.35;;;19.40;99.90;;;;;;5017416;28;20208;-35
2022/07/01 09:25:47;;;;;;;4.50;1.70;;;19.40;99.90;;;;;;5027736;28;20094;-35
2022/07/01 09:28:17;;;;;;;5.30;2.40;;;19.50;99.90;;;;;;5026492;28;20435;-35
2022/07/01 09:30:48;;;;;;;4.25;1.92;;;19.50;99.90;;;;;;5028284;28;20026;-36
2022/07/01 09:33:26;;;;;;;3.90;1.80;;;19.50;99.90;;;;;;5028540;28;20665;-37
2022/07/01 09:35:52;;;;;;;4.80;1.73;;;19.50;99.90;;;;;;5029562;28;20141;-36
2022/07/01 09:38:23;;;;;;;4.53;1.90;;;19.60;99.90;;;;;;5027797;28;20017;-36
2022/07/01 09:40:57;;;;;;;6.00;2.15;;;19.60;99.90;;;;;;5029089;28;20078;-35
2022/07/01 09:43:31;;;;;;;2.10;1.48;;;19.50;99.90;;;;;;5027605;28;20473;-36
2022/07/01 09:46:00;;;;;;;4.28;1.58;;;19.50;99.90;;;;;;5028926;28;20040;-39
2022/07/01 09:48:34;;;;;;;3.33;1.50;;;19.40;99.90;;;;;;5028059;28;20484;-36
2022/07/01 09:51:02;;;;;;;2.67;1.40;;;19.40;99.90;;;;;;5028988;28;20026;-35
2022/07/01 09:53:27;;;;;;;5.05;1.30;;;19.40;99.90;;;;;;5028420;28;20033;-35
2022/07/01 09:55:53;;;;;;;3.72;1.52;;;19.50;99.90;;;;;;5029483;28;20013;-37
2022/07/01 09:58:20;;;;;;;3.28;1.60;;;19.50;99.90;;;;;;5027740;28;20551;-36
2022/07/01 10:00:45;;;;;;;3.35;1.27;;;19.60;99.90;;;;;;5028713;28;20065;-36
2022/07/01 10:03:12;;;;;;;2.65;1.33;;;19.60;99.90;;;;;;5029001;28;20049;-35
2022/07/01 10:05:51;;;;;;;2.72;1.17;;;19.60;99.90;;;;;;5027909;28;20079;-37
2022/07/01 10:08:26;;;;;;;4.50;1.70;;;19.70;99.90;;;;;;5027765;28;20594;-35
2022/07/01 10:11:15;;;;;;;2.55;1.30;;;19.70;99.90;;;;;;5028707;28;20755;-35
2022/07/01 10:13:42;;;;;;;1.73;1.00;;;19.70;99.90;;;;;;5027949;28;20032;-36
2022/07/01 10:16:09;;;;;;;1.38;1.25;;;19.70;99.90;;;;;;5028310;28;20325;-36
2022/07/01 10:18:34;;;;;;;3.22;1.10;;;19.70;99.90;;;;;;5026801;28;20103;-37
2022/07/01 10:21:01;;;;;;;2.63;1.08;;;19.80;99.90;;;;;;5028007;28;20029;-36
2022/07/01 10:23:42;;;;;;;2.30;0.98;;;19.90;99.90;;;;;;5022965;28;20617;-36
2022/07/01 10:26:08;;;;;;;3.67;1.40;;;20.00;99.50;;;;;;5013505;28;20366;-34
2022/07/01 10:28:43;;;;;;;4.13;0.93;;;20.20;99.40;;;;;;5012269;28;20018;-36
2022/07/01 10:31:15;;;;;;;3.05;1.00;;;20.30;98.80;;;;;;5015179;28;20033;-36
2022/07/01 10:33:53;;;;;;;3.25;1.75;;;20.50;98.50;;;;;;5011586;28;20017;-36
2022/07/01 10:36:22;;;;;;;3.20;1.00;;;20.60;98.30;;;;;;5015092;28;20073;-36
2022/07/01 10:41:33;;;;;;;2.53;1.08;;;20.70;97.90;;;;;;5013686;28;20026;-37
2022/07/01 10:44:03;;;;;;;1.90;1.20;;;20.60;97.50;;;;;;5010020;28;20025;-36
2022/07/01 10:46:46;;;;;;;1.25;1.10;;;20.60;97.20;;;;;;5027138;28;20025;-36
2022/07/01 10:49:14;;;;;;;1.50;0.90;;;20.60;97.10;;;;;;5028379;28;20029;-35
2022/07/01 10:51:57;;;;;;;2.58;1.00;;;20.60;97.30;;;;;;5027853;28;20446;-36
2022/07/01 10:54:39;;;;;;;1.60;1.00;;;20.60;97.50;;;;;;5026726;28;20408;-35
2022/07/01 10:57:19;;;;;;;2.25;1.10;;;20.60;97.30;;;;;;5028679;28;20043;-36
2022/07/01 10:59:53;;;;;;;3.40;1.10;;;20.50;97.10;;;;;;5026542;28;20067;-35
2022/07/01 11:02:30;;;;;;;2.53;1.02;;;20.50;97.10;;;;;;5026920;28;20033;-36
2022/07/01 11:05:01;;;;;;;2.65;1.00;;;20.50;97.00;;;;;;5028160;28;20029;-36
2022/07/01 11:07:34;;;;;;;2.45;0.90;;;20.60;96.50;;;;;;5027322;28;20029;-36
2022/07/01 11:10:02;;;;;;;2.58;1.20;;;20.70;96.30;;;;;;5027110;28;20059;-36
2022/07/01 11:12:29;;;;;;;1.95;0.90;;;20.80;96.00;;;;;;5026835;28;20473;-36
2022/07/01 11:14:58;;;;;;;3.88;1.10;;;21.00;95.80;;;;;;5026786;28;20025;-36
2022/07/01 11:17:25;;;;;;;3.78;1.88;;;20.90;95.40;;;;;;5027367;28;20103;-35
2022/07/01 11:19:52;;;;;;;2.90;0.93;;;20.90;95.60;;;;;;5026975;28;20497;-35
2022/07/01 11:22:23;;;;;;;3.50;0.90;;;20.90;95.90;;;;;;5026433;28;20104;-36
2022/07/01 11:24:59;;;;;;;2.17;1.15;;;20.80;95.60;;;;;;5027043;28;20084;-36
2022/07/01 11:27:26;;;;;;;3.15;1.10;;;20.80;95.50;;;;;;5026639;28;20065;-36
2022/07/01 11:29:53;;;;;;;5.53;1.92;;;20.70;95.60;;;;;;5026542;28;20022;-35
2022/07/01 11:32:30;;;;;;;2.72;1.20;;;20.70;95.70;;;;;;5026611;28;20021;-36
2022/07/01 11:34:56;;;;;;;3.15;1.02;;;20.60;95.20;;;;;;5026458;28;20116;-35
2022/07/01 11:40:12;;;;;;;2.25;0.90;;;20.60;95.30;;;;;;5026559;28;20040;-34
2022/07/01 11:42:39;;;;;;;2.08;0.90;;;20.70;95.30;;;;;;5012654;28;20025;-34
2022/07/01 11:45:05;;;;;;;1.75;0.85;;;20.80;95.10;;;;;;5026504;28;20240;-34
2022/07/01 11:47:31;;;;;;;2.30;1.23;;;20.90;94.60;;;;;;5025932;28;20037;-35
2022/07/01 11:49:58;;;;;;;3.35;0.90;;;20.80;93.90;;;;;;5026540;28;20034;-36
2022/07/01 11:52:24;;;;;;;3.13;0.90;;;20.70;94.00;;;;;;5025673;28;20025;-36
2022/07/01 11:54:57;;;;;;;2.05;0.63;;;20.70;93.90;;;;;;5026536;28;20036;-36
2022/07/01 11:57:26;;;;;;;3.47;0.80;;;20.60;93.50;;;;;;5025399;28;20017;-36
2022/07/01 11:59:54;;;;;;;0.85;0.60;;;20.60;93.70;;;;;;5025855;28;20464;-35
2022/07/01 12:02:21;;;;;;;1.88;0.70;;;20.70;93.80;;;;;;5023969;28;20025;-37
2022/07/01 12:04:48;;;;;;;1.42;0.70;;;20.80;94.00;;;;;;5023399;28;20103;-35
2022/07/01 12:07:15;;;;;;;2.40;0.98;;;21.00;94.10;;;;;;5023908;28;20376;-35
2022/07/01 12:09:40;;;;;;;1.95;0.68;;;21.10;93.80;;;;;;5023085;28;20428;-36
2022/07/01 12:12:16;;;;;;;2.72;0.82;;;21.10;93.50;;;;;;5024493;28;20535;-35
2022/07/01 12:14:49;;;;;;;2.00;0.73;;;21.20;93.60;;;;;;5024499;28;20329;-36
2022/07/01 12:17:16;;;;;;;2.30;0.90;;;21.20;93.70;;;;;;5025545;28;20084;-34
2022/07/01 12:19:44;;;;;;;4.78;0.90;;;21.20;93.40;;;;;;5025366;28;20140;-36
2022/07/01 12:22:11;;;;;;;3.58;0.80;;;21.30;93.20;;;;;;5025840;28;20561;-36
2022/07/01 12:24:37;;;;;;;1.85;0.70;;;21.30;93.10;;;;;;5025316;28;20029;-36
2022/07/01 12:27:08;;;;;;;3.40;1.13;;;21.20;93.20;;;;;;5015512;28;20026;-37
2022/07/01 12:29:39;;;;;;;2.58;0.93;;;21.20;93.00;;;;;;5024704;28;20039;-36
2022/07/01 12:32:07;;;;;;;2.15;0.90;;;21.10;92.90;;;;;;5024585;28;20025;-37
2022/07/01 12:34:41;;;;;;;1.75;0.63;;;21.10;92.90;;;;;;5025265;28;20037;-37
2022/07/01 12:37:13;;;;;;;1.88;0.77;;;21.10;92.20;;;;;;5025889;28;20026;-36
2022/07/01 12:40:06;;;;;;;1.92;0.60;;;21.10;92.00;;;;;;5024370;28;20041;-37
2022/07/01 12:42:43;;;;;;;1.08;0.65;;;21.10;92.20;;;;;;5022309;28;20048;-36
2022/07/01 12:45:11;;;;;;;3.35;0.80;;;21.10;92.30;;;;;;5005358;28;20375;-36
2022/07/01 12:47:48;;;;;;;1.63;0.65;;;21.20;92.40;;;;;;5016916;28;20492;-38
2022/07/01 12:50:22;;;;;;;3.53;0.90;;;21.30;92.40;;;;;;5025140;28;20032;-36
2022/07/01 12:53:02;;;;;;;4.82;0.90;;;21.30;92.20;;;;;;5025231;28;20032;-38